Time;durP1;ratioP1;P1;durP2;ratioP2;P2;SDS_P1;SDS_P2;PMS_P1;PMS_P2;Temp;Humidity;BMP_temperature;BMP_pressure;BME280_temperature;BME280_humidity;BME280_pressure;Samples;Min_cycle;Max_cycle;Signal;HPM_P1;HPM_P2
2023/05/30 00:00:26;;;;;;;6.05;1.40;;;;;;;11.52;98.41;102267.47;6176743;28;20066;-71
2023/05/30 00:03:28;;;;;;;9.73;1.55;;;;;;;11.41;99.27;102259.94;6177497;28;20466;-71
2023/05/30 00:06:29;;;;;;;4.72;1.45;;;;;;;11.36;100.00;102265.34;6177185;28;20098;-71
2023/05/30 00:09:31;;;;;;;7.93;2.33;;;;;;;11.40;100.00;102263.50;6176011;28;20364;-71
2023/05/30 00:12:32;;;;;;;8.57;1.60;;;;;;;11.39;100.00;102262.59;6178202;28;20050;-72
2023/05/30 00:15:35;;;;;;;16.40;2.85;;;;;;;11.31;99.81;102266.38;6177436;28;20054;-71
2023/05/30 00:18:36;;;;;;;11.30;2.15;;;;;;;11.29;100.00;102258.56;6177165;28;20262;-71
2023/05/30 00:21:37;;;;;;;8.77;2.33;;;;;;;11.37;100.00;102256.53;6142322;28;997379;-71
2023/05/30 00:24:39;;;;;;;5.35;1.75;;;;;;;11.29;100.00;102255.06;6177779;28;20356;-71
2023/05/30 00:27:40;;;;;;;9.70;1.85;;;;;;;11.24;100.00;102263.09;6177817;28;20046;-71
2023/05/30 00:30:42;;;;;;;11.80;2.22;;;;;;;11.23;100.00;102266.66;6177212;28;20372;-71
2023/05/30 00:33:44;;;;;;;10.32;1.52;;;;;;;11.31;100.00;102261.13;6178792;28;20054;-71
2023/05/30 00:36:45;;;;;;;16.58;2.63;;;;;;;11.26;100.00;102269.16;6193082;28;20077;-71
2023/05/30 00:39:47;;;;;;;12.48;2.33;;;;;;;11.34;100.00;102269.78;6192889;28;20054;-71
2023/05/30 00:42:48;;;;;;;6.47;1.63;;;;;;;11.37;100.00;102267.06;6201800;28;20165;-71
2023/05/30 00:45:54;;;;;;;7.43;1.98;;;;;;;11.30;100.00;102269.94;6193452;28;20046;-71
2023/05/30 00:48:56;;;;;;;6.32;1.60;;;;;;;11.37;100.00;102276.75;6201391;28;20059;-71
2023/05/30 00:51:58;;;;;;;5.03;1.15;;;;;;;11.33;100.00;102269.84;6201460;28;20613;-71
2023/05/30 00:55:02;;;;;;;8.10;1.88;;;;;;;11.24;100.00;102276.25;6188650;28;20050;-71
2023/05/30 00:58:03;;;;;;;4.88;1.83;;;;;;;11.21;100.00;102275.50;6189992;28;20050;-71
2023/05/30 01:01:07;;;;;;;12.40;1.67;;;;;;;11.22;100.00;102278.09;6192648;28;20046;-71
2023/05/30 01:04:08;;;;;;;10.18;2.05;;;;;;;11.17;100.00;102272.97;6199114;28;20061;-71
2023/05/30 01:07:11;;;;;;;6.25;2.03;;;;;;;11.18;100.00;102277.31;6201143;28;20432;-71
2023/05/30 01:10:13;;;;;;;6.93;2.05;;;;;;;11.12;100.00;102279.28;6200781;28;20061;-71
2023/05/30 01:13:25;;;;;;;7.47;1.42;;;;;;;11.20;100.00;102269.38;6201099;28;20351;-71
2023/05/30 01:16:32;;;;;;;14.40;3.35;;;;;;;11.20;100.00;102268.50;6201314;28;20451;-71
2023/05/30 01:19:55;;;;;;;8.15;1.73;;;;;;;11.15;100.00;102261.63;6191422;28;20130;-71
2023/05/30 01:23:31;;;;;;;8.30;1.80;;;;;;;11.06;100.00;102261.06;6193474;28;20581;-71
2023/05/30 01:26:44;;;;;;;13.25;1.63;;;;;;;11.10;100.00;102267.94;6202586;28;20182;-71
2023/05/30 01:29:47;;;;;;;8.95;1.75;;;;;;;11.07;100.00;102276.78;6199356;28;20050;-71
2023/05/30 01:32:48;;;;;;;14.82;2.42;;;;;;;10.92;100.00;102267.59;6199900;28;20056;-71
2023/05/30 01:35:50;;;;;;;5.25;1.50;;;;;;;10.95;100.00;102274.56;6202129;28;20054;-71
2023/05/30 01:38:51;;;;;;;7.63;2.60;;;;;;;10.91;100.00;102275.53;6201106;28;20054;-71
2023/05/30 01:42:02;;;;;;;6.22;1.45;;;;;;;10.88;100.00;102265.97;6205732;28;20049;-71
2023/05/30 01:45:13;;;;;;;7.30;1.80;;;;;;;10.99;100.00;102273.56;6205750;28;20132;-71
2023/05/30 01:48:22;;;;;;;12.85;2.15;;;;;;;11.04;100.00;102274.25;6205613;28;20054;-71
2023/05/30 01:51:29;;;;;;;4.70;2.20;;;;;;;11.00;100.00;102274.41;6180985;28;20059;-71
2023/05/30 01:54:34;;;;;;;3.13;1.30;;;;;;;11.02;100.00;102270.81;6192477;28;20058;-71
2023/05/30 01:57:40;;;;;;;6.03;1.67;;;;;;;10.97;100.00;102270.09;6205869;28;20162;-71
2023/05/30 02:00:44;;;;;;;8.60;1.63;;;;;;;10.82;100.00;102276.69;6202159;28;20050;-71
2023/05/30 02:03:47;;;;;;;9.15;1.83;;;;;;;10.79;100.00;102283.78;6182327;28;20449;-71
2023/05/30 02:06:48;;;;;;;8.07;2.08;;;;;;;10.79;100.00;102286.41;6180940;28;20054;-71
2023/05/30 02:09:49;;;;;;;2.88;1.25;;;;;;;10.69;100.00;102293.72;6180541;28;20049;-71
2023/05/30 02:12:51;;;;;;;6.45;1.70;;;;;;;10.62;100.00;102289.53;6186678;28;20053;-71
2023/05/30 02:15:53;;;;;;;5.35;1.60;;;;;;;10.60;100.00;102283.47;6196874;28;20039;-71
2023/05/30 02:18:55;;;;;;;11.25;1.70;;;;;;;10.64;100.00;102288.59;6204430;28;20058;-71
2023/05/30 02:21:56;;;;;;;5.35;1.75;;;;;;;10.65;100.00;102299.97;6204685;28;20047;-71
2023/05/30 02:24:57;;;;;;;12.07;1.83;;;;;;;10.61;100.00;102303.59;6204678;28;20347;-71
2023/05/30 02:27:59;;;;;;;5.25;1.50;;;;;;;10.70;100.00;102297.22;6204566;28;20052;-71
2023/05/30 02:31:02;;;;;;;4.30;1.70;;;;;;;10.69;100.00;102298.97;6204213;28;20055;-71
2023/05/30 02:34:04;;;;;;;12.00;2.00;;;;;;;10.70;100.00;102303.31;6186708;28;20047;-71
2023/05/30 02:37:06;;;;;;;8.68;2.38;;;;;;;10.60;100.00;102296.63;6180639;28;20047;-71
2023/05/30 02:40:10;;;;;;;6.18;1.73;;;;;;;10.61;100.00;102298.34;6179746;28;20050;-71
2023/05/30 02:43:11;;;;;;;2.08;1.23;;;;;;;10.70;100.00;102298.06;6180428;28;20130;-71
2023/05/30 02:46:14;;;;;;;9.65;1.85;;;;;;;10.71;100.00;102301.56;6180311;28;20049;-71
2023/05/30 02:49:15;;;;;;;4.68;1.77;;;;;;;10.70;100.00;102303.31;6179454;28;20046;-71
2023/05/30 02:52:19;;;;;;;7.90;1.90;;;;;;;10.72;100.00;102308.53;6203361;28;20351;-71
2023/05/30 02:55:21;;;;;;;12.63;1.70;;;;;;;10.75;100.00;102308.44;6201620;28;20125;-71
2023/05/30 02:58:23;;;;;;;10.18;1.63;;;;;;;10.71;100.00;102307.66;6203785;28;20125;-71
2023/05/30 03:01:25;;;;;;;5.60;1.63;;;;;;;10.63;100.00;102312.31;6203269;28;20510;-71
2023/05/30 03:04:27;;;;;;;14.40;1.80;;;;;;;10.58;100.00;102308.91;6186262;28;20464;-71
2023/05/30 03:07:29;;;;;;;6.78;1.83;;;;;;;10.49;100.00;102306.56;6199770;28;20043;-71
2023/05/30 03:10:31;;;;;;;5.43;1.77;;;;;;;10.34;100.00;102308.69;6203175;28;20043;-71
2023/05/30 03:13:32;;;;;;;11.40;1.73;;;;;;;10.24;100.00;102315.13;6195527;28;20057;-71
2023/05/30 03:16:36;;;;;;;3.90;1.30;;;;;;;10.28;100.00;102305.41;6203813;28;20427;-71
2023/05/30 03:19:37;;;;;;;8.93;1.90;;;;;;;10.18;100.00;102311.78;6202543;28;20443;-71
2023/05/30 03:22:38;;;;;;;12.00;2.47;;;;;;;10.21;100.00;102316.94;6193077;28;20046;-71
2023/05/30 03:25:40;;;;;;;4.35;1.60;;;;;;;10.22;100.00;102302.88;6179350;28;20047;-71
2023/05/30 03:28:41;;;;;;;8.70;2.15;;;;;;;10.24;100.00;102315.13;6193491;28;20057;-71
2023/05/30 03:31:44;;;;;;;5.57;1.58;;;;;;;10.28;100.00;102319.38;6202081;28;20359;-71
2023/05/30 03:34:46;;;;;;;6.40;1.70;;;;;;;10.16;100.00;102320.53;6203056;28;20061;-71
2023/05/30 03:37:47;;;;;;;9.02;2.55;;;;;;;10.21;100.00;102327.44;6203252;28;20050;-70
2023/05/30 03:40:49;;;;;;;11.93;2.05;;;;;;;10.29;100.00;102329.00;6202288;28;20465;-71
2023/05/30 03:43:50;;;;;;;5.00;1.83;;;;;;;10.40;100.00;102328.69;6202404;28;20046;-71
2023/05/30 03:46:53;;;;;;;10.50;2.15;;;;;;;10.44;100.00;102327.72;6202724;28;20364;-71
2023/05/30 03:49:54;;;;;;;7.18;1.95;;;;;;;10.43;100.00;102331.25;6194037;28;20430;-71
2023/05/30 03:52:55;;;;;;;12.57;1.92;;;;;;;10.44;100.00;102329.47;6202779;28;20046;-71
2023/05/30 03:55:57;;;;;;;5.50;1.52;;;;;;;10.40;100.00;102336.56;6192706;28;20706;-71
2023/05/30 03:58:58;;;;;;;10.88;2.13;;;;;;;10.45;100.00;102336.47;6173846;28;20042;-71
2023/05/30 04:02:01;;;;;;;7.82;1.73;;;;;;;10.47;100.00;102339.91;6178939;28;20488;-71
2023/05/30 04:05:02;;;;;;;6.25;1.60;;;;;;;10.39;100.00;102342.75;6180612;28;20057;-71
2023/05/30 04:08:04;;;;;;;7.93;2.20;;;;;;;10.42;100.00;102350.56;6183451;28;20042;-71
2023/05/30 04:11:05;;;;;;;11.43;2.42;;;;;;;10.33;100.00;102356.06;6180663;28;20564;-71
2023/05/30 04:14:06;;;;;;;6.20;2.28;;;;;;;10.34;100.00;102356.00;6179289;28;20039;-71
2023/05/30 04:17:09;;;;;;;10.48;2.15;;;;;;;10.23;100.00;102354.56;6179481;28;20522;-71
2023/05/30 04:20:12;;;;;;;11.13;2.42;;;;;;;10.25;100.00;102358.88;6179441;28;20049;-71
2023/05/30 04:23:13;;;;;;;10.65;2.22;;;;;;;10.37;100.00;102363.81;6181677;28;20046;-71
2023/05/30 04:26:15;;;;;;;5.82;2.47;;;;;;;10.37;100.00;102362.97;6173100;28;20054;-71
2023/05/30 04:29:19;;;;;;;7.05;2.47;;;;;;;10.39;100.00;102369.03;6180510;28;20137;-71
2023/05/30 04:32:21;;;;;;;14.88;2.78;;;;;;;10.44;100.00;102368.91;6180142;28;20552;-72
2023/05/30 04:35:23;;;;;;;5.30;1.98;;;;;;;10.40;100.00;102370.75;6189411;28;20042;-71
2023/05/30 04:38:26;;;;;;;5.03;2.17;;;;;;;10.48;100.00;102379.28;6193926;28;20466;-71
2023/05/30 04:41:27;;;;;;;11.15;2.13;;;;;;;10.34;100.00;102377.03;6188121;28;20042;-71
2023/05/30 04:44:29;;;;;;;8.38;2.42;;;;;;;10.39;100.00;102369.03;6181287;28;20042;-71
2023/05/30 04:47:31;;;;;;;12.85;2.78;;;;;;;10.40;100.00;102363.75;6185655;28;20042;-72
2023/05/30 04:50:33;;;;;;;14.40;2.67;;;;;;;10.44;100.00;102358.38;6200895;28;20042;-71
2023/05/30 04:53:34;;;;;;;9.50;2.40;;;;;;;10.58;100.00;102369.38;6201365;28;20072;-71
2023/05/30 04:56:35;;;;;;;8.25;1.90;;;;;;;10.55;100.00;102361.59;6201494;28;20048;-71
2023/05/30 04:59:37;;;;;;;8.48;1.75;;;;;;;10.63;100.00;102375.41;6200801;28;20054;-71
2023/05/30 05:02:40;;;;;;;5.53;2.30;;;;;;;10.67;100.00;102374.38;6201089;28;20136;-71
2023/05/30 05:05:41;;;;;;;6.97;1.90;;;;;;;10.67;100.00;102371.75;6201297;28;20058;-71
2023/05/30 05:08:42;;;;;;;8.68;1.92;;;;;;;10.79;100.00;102365.31;6201225;28;20046;-71
2023/05/30 05:11:44;;;;;;;8.07;2.35;;;;;;;10.70;100.00;102358.53;6199127;28;20050;-71
2023/05/30 05:14:46;;;;;;;9.48;3.03;;;;;;;10.79;100.00;102363.53;6200770;28;20432;-72
2023/05/30 05:17:49;;;;;;;4.22;1.90;;;;;;;10.70;100.00;102363.81;6201285;28;20048;-71
2023/05/30 05:20:51;;;;;;;6.57;2.50;;;;;;;10.75;100.00;102364.53;6199774;28;20362;-71
2023/05/30 05:23:53;;;;;;;7.88;2.40;;;;;;;10.83;100.00;102365.19;6191139;28;20137;-71
2023/05/30 05:26:54;;;;;;;12.05;3.97;;;;;;;10.85;100.00;102359.88;6196933;28;20042;-71
2023/05/30 05:29:55;;;;;;;18.02;3.05;;;;;;;10.90;100.00;102371.13;6200314;28;20478;-71
2023/05/30 05:32:58;;;;;;;14.55;2.20;;;;;;;10.96;100.00;102370.09;6196370;28;20378;-71
2023/05/30 05:36:00;;;;;;;10.98;1.88;;;;;;;11.07;100.00;102374.13;6197514;28;20299;-71
2023/05/30 05:39:01;;;;;;;8.43;1.73;;;;;;;11.16;100.00;102373.84;6198754;28;20424;-71
2023/05/30 05:42:03;;;;;;;5.38;1.77;;;;;;;11.19;100.00;102359.75;6200831;28;20128;-71
2023/05/30 05:45:05;;;;;;;15.93;2.33;;;;;;;11.23;100.00;102365.78;6190587;28;20046;-71
2023/05/30 05:48:08;;;;;;;6.53;2.20;;;;;;;11.27;100.00;102372.69;6192554;28;20343;-71
2023/05/30 05:51:11;;;;;;;14.10;3.00;;;;;;;11.27;100.00;102357.75;6200318;28;20053;-71
2023/05/30 05:54:12;;;;;;;6.57;2.13;;;;;;;11.37;100.00;102368.88;6200726;28;20176;-71
2023/05/30 05:57:13;;;;;;;8.82;2.70;;;;;;;11.27;100.00;102370.06;6200975;28;20047;-71
2023/05/30 06:00:15;;;;;;;8.27;1.95;;;;;;;11.34;100.00;102375.06;6191929;28;20062;-71
2023/05/30 06:03:18;;;;;;;11.35;2.45;;;;;;;11.40;100.00;102374.91;6199269;28;20053;-71
2023/05/30 06:06:19;;;;;;;9.02;2.33;;;;;;;11.50;100.00;102377.25;6200686;28;20051;-71
2023/05/30 06:09:21;;;;;;;10.82;2.17;;;;;;;11.53;100.00;102382.41;6196310;28;20050;-72
2023/05/30 06:12:22;;;;;;;4.15;1.70;;;;;;;11.56;100.00;102385.81;6205370;28;20046;-71
2023/05/30 06:15:23;;;;;;;5.70;1.83;;;;;;;11.62;100.00;102384.75;6204864;28;20046;-71
2023/05/30 06:18:26;;;;;;;6.93;2.05;;;;;;;11.66;100.00;102392.50;6181125;28;20046;-71
2023/05/30 06:21:27;;;;;;;5.18;2.03;;;;;;;11.75;100.00;102385.22;6180053;28;20054;-71
2023/05/30 06:24:28;;;;;;;11.27;2.05;;;;;;;11.81;100.00;102382.38;6181962;28;20055;-71
2023/05/30 06:27:30;;;;;;;6.75;2.40;;;;;;;11.87;100.00;102384.88;6180597;28;20049;-72
2023/05/30 06:30:31;;;;;;;14.00;4.43;;;;;;;11.86;100.00;102389.28;6189141;28;20051;-72
2023/05/30 06:33:34;;;;;;;5.82;1.95;;;;;;;11.90;100.00;102385.66;6204451;28;20382;-72
2023/05/30 06:36:36;;;;;;;6.10;1.65;;;;;;;11.99;100.00;102381.84;6204481;28;20375;-72
2023/05/30 06:39:37;;;;;;;7.85;1.88;;;;;;;12.02;100.00;102386.13;6204071;28;20108;-72
2023/05/30 06:42:38;;;;;;;3.55;1.60;;;;;;;12.06;100.00;102391.25;6204232;28;20450;-71
2023/05/30 06:45:39;;;;;;;11.40;1.92;;;;;;;12.14;100.00;102388.38;6204333;28;20050;-71
2023/05/30 06:48:42;;;;;;;9.27;3.03;;;;;;;12.19;100.00;102402.25;6204175;28;20206;-71
2023/05/30 06:51:43;;;;;;;10.30;3.50;;;;;;;12.24;100.00;102397.69;6201998;28;20057;-72
2023/05/30 06:54:46;;;;;;;8.23;1.73;;;;;;;12.24;100.00;102400.31;6203996;28;20065;-71
2023/05/30 06:57:48;;;;;;;7.13;2.28;;;;;;;12.23;100.00;102397.75;6204341;28;20050;-71
2023/05/30 07:00:50;;;;;;;12.52;1.98;;;;;;;12.29;100.00;102405.44;6203290;28;20451;-72
2023/05/30 07:03:52;;;;;;;8.38;1.92;;;;;;;12.33;100.00;102412.34;6204058;28;20049;-71
2023/05/30 07:06:54;;;;;;;8.98;1.60;;;;;;;12.31;100.00;102422.06;6203821;28;20046;-72
2023/05/30 07:09:55;;;;;;;7.85;1.65;;;;;;;12.29;100.00;102410.72;6203312;28;20047;-72
2023/05/30 07:12:57;;;;;;;5.90;1.55;;;;;;;12.30;100.00;102404.53;6203771;28;20046;-72
2023/05/30 07:15:58;;;;;;;5.00;1.70;;;;;;;12.39;100.00;102409.47;6201968;28;20057;-73
2023/05/30 07:19:01;;;;;;;5.55;2.03;;;;;;;12.42;100.00;102412.03;6181426;28;20058;-74
2023/05/30 07:22:02;;;;;;;9.95;1.83;;;;;;;12.32;100.00;102411.47;6179286;28;20129;-72
2023/05/30 07:25:04;;;;;;;9.27;2.13;;;;;;;12.29;100.00;102408.94;6179483;28;20043;-73
2023/05/30 07:28:06;;;;;;;8.38;2.00;;;;;;;12.30;100.00;102415.06;6178200;28;20140;-73
2023/05/30 07:31:07;;;;;;;7.80;2.33;;;;;;;12.33;100.00;102420.25;6198183;28;20435;-74
2023/05/30 07:34:10;;;;;;;1.83;1.35;;;;;;;12.35;100.00;102421.94;6201710;28;20042;-73
2023/05/30 07:37:11;;;;;;;5.38;1.88;;;;;;;12.35;100.00;102421.03;6199014;28;20450;-74
2023/05/30 07:40:17;;;;;;;7.53;2.63;;;;;;;12.35;100.00;102421.94;6197226;28;20046;-75
2023/05/30 07:43:18;;;;;;;5.97;2.10;;;;;;;12.32;100.00;102424.66;6201410;28;20058;-74
2023/05/30 07:46:20;;;;;;;8.05;2.42;;;;;;;12.31;100.00;102422.94;6186763;28;20359;-74
2023/05/30 07:49:22;;;;;;;4.95;2.00;;;;;;;12.33;100.00;102428.16;6202032;28;20186;-73
2023/05/30 07:52:25;;;;;;;8.27;2.35;;;;;;;12.35;100.00;102421.03;6201727;28;20053;-73
2023/05/30 07:55:27;;;;;;;14.35;2.25;;;;;;;12.38;100.00;102413.91;6202324;28;20043;-73
2023/05/30 07:58:28;;;;;;;7.60;1.65;;;;;;;12.41;100.00;102412.94;6194750;28;20177;-73
2023/05/30 08:01:31;;;;;;;7.25;2.13;;;;;;;12.49;100.00;102404.75;6201874;28;20061;-74
2023/05/30 08:04:34;;;;;;;10.13;3.38;;;;;;;12.40;100.00;102411.22;6200821;28;20069;-74
2023/05/30 08:07:35;;;;;;;4.63;2.63;;;;;;;12.43;100.00;102405.81;6192097;28;20042;-74
2023/05/30 08:10:37;;;;;;;11.70;3.55;;;;;;;12.46;100.00;102403.09;6195903;28;20097;-72
2023/05/30 08:13:38;;;;;;;8.85;2.67;;;;;;;12.52;100.00;102408.16;6198496;28;20427;-73
2023/05/30 08:16:40;;;;;;;6.47;2.08;;;;;;;12.49;100.00;102402.09;6185107;28;20047;-73
2023/05/30 08:19:43;;;;;;;10.48;2.00;;;;;;;12.50;100.00;102406.50;6198161;28;20472;-73
2023/05/30 08:22:44;;;;;;;4.82;2.35;;;;;;;12.47;100.00;102399.53;6185543;28;20185;-74
2023/05/30 08:25:46;;;;;;;5.80;2.03;;;;;;;12.52;100.00;102399.38;6183592;28;20045;-73
2023/05/30 08:28:47;;;;;;;4.78;2.17;;;;;;;12.51;100.00;102395.88;6201078;28;20046;-75
2023/05/30 08:31:49;;;;;;;10.30;1.80;;;;;;;12.57;100.00;102400.06;6201625;28;20050;-73
2023/05/30 08:34:52;;;;;;;4.75;1.55;;;;;;;12.75;100.00;102399.41;6196437;28;20077;-73
2023/05/30 08:37:53;;;;;;;6.20;2.22;;;;;;;12.93;100.00;102405.81;6184368;28;20053;-74
2023/05/30 08:40:55;;;;;;;5.47;2.03;;;;;;;12.90;100.00;102405.94;6176927;28;20047;-73
2023/05/30 08:43:56;;;;;;;8.82;2.50;;;;;;;12.90;100.00;102405.94;6177720;28;20051;-73
2023/05/30 08:46:58;;;;;;;5.40;2.03;;;;;;;12.76;100.00;102413.47;6177402;28;20446;-73
2023/05/30 08:50:03;;;;;;;6.22;2.58;;;;;;;12.68;100.00;102413.75;6197483;28;20058;-72
2023/05/30 08:53:09;;;;;;;9.07;2.38;;;;;;;12.67;100.00;102412.00;6195614;28;20047;-73
2023/05/30 08:56:12;;;;;;;9.85;2.80;;;;;;;12.67;100.00;102412.00;6196030;28;20432;-73
2023/05/30 08:59:16;;;;;;;5.55;2.45;;;;;;;12.62;100.00;102412.19;6187476;28;20047;-73
2023/05/30 09:02:20;;;;;;;11.88;3.35;;;;;;;12.47;100.00;102410.09;6186441;28;20125;-73
2023/05/30 09:05:22;;;;;;;3.53;2.30;;;;;;;12.46;100.00;102410.16;6175903;28;20046;-73
2023/05/30 09:08:25;;;;;;;10.50;2.58;;;;;;;12.53;100.00;102412.50;6175308;28;20069;-73
2023/05/30 09:11:26;;;;;;;4.38;2.30;;;;;;;12.55;100.00;102428.28;6188176;28;20129;-73
2023/05/30 09:14:27;;;;;;;6.25;2.33;;;;;;;12.53;100.00;102430.97;6192005;28;20061;-73
2023/05/30 09:17:29;;;;;;;4.63;2.25;;;;;;;12.55;100.00;102436.19;6200240;28;20427;-73
2023/05/30 09:20:32;;;;;;;5.97;2.60;;;;;;;12.51;100.00;102440.72;6199356;28;20155;-74
2023/05/30 09:23:36;;;;;;;8.23;2.33;;;;;;;12.47;100.00;102441.72;6199846;28;20454;-73
2023/05/30 09:26:37;;;;;;;4.22;1.80;;;;;;;12.47;100.00;102446.16;6186048;28;20050;-73
2023/05/30 09:29:43;;;;;;;5.35;1.67;;;;;;;12.43;100.00;102448.00;6175336;28;20333;-73
2023/05/30 09:33:01;;;;;;;8.65;2.92;;;;;;;12.47;100.00;102447.00;6175806;28;20137;-72
2023/05/30 09:36:04;;;;;;;11.50;2.38;;;;;;;12.50;100.00;102446.06;6176096;28;20133;-73
2023/05/30 09:39:06;;;;;;;6.68;2.70;;;;;;;12.49;100.00;102454.84;6195128;28;20046;-73
2023/05/30 09:42:09;;;;;;;5.88;2.97;;;;;;;12.58;100.00;102447.50;6201223;28;20060;-72
2023/05/30 09:45:12;;;;;;;10.70;3.70;;;;;;;12.77;100.00;102452.16;6198364;28;20478;-72
2023/05/30 09:48:18;;;;;;;7.78;3.25;;;;;;;12.88;100.00;102456.09;6203074;28;20043;-73
2023/05/30 09:51:22;;;;;;;11.50;3.72;;;;;;;12.84;100.00;102448.34;6202261;28;20053;-73
2023/05/30 09:54:23;;;;;;;6.78;2.65;;;;;;;12.85;100.00;102448.31;6204654;28;20046;-73
2023/05/30 09:57:27;;;;;;;8.88;2.63;;;;;;;12.81;100.00;102446.72;6204476;28;20042;-72
2023/05/30 10:00:29;;;;;;;8.40;3.20;;;;;;;12.93;100.00;102450.66;6195554;28;20105;-73
2023/05/30 10:03:44;;;;;;;5.35;1.92;;;;;;;12.88;100.00;102444.69;6204135;28;20486;-72
2023/05/30 10:06:48;;;;;;;5.93;2.20;;;;;;;12.90;100.00;102456.06;6195945;28;20076;-73
2023/05/30 10:09:51;;;;;;;9.65;4.20;;;;;;;12.91;100.00;102445.47;6203602;28;20050;-72
2023/05/30 10:12:55;;;;;;;5.07;2.22;;;;;;;13.02;100.00;102444.19;6201374;28;20053;-72
2023/05/30 10:15:57;;;;;;;7.32;2.75;;;;;;;12.94;100.00;102455.03;6183750;28;20043;-72
2023/05/30 10:19:02;;;;;;;5.20;2.10;;;;;;;13.02;100.00;102452.13;6181262;28;20046;-72
2023/05/30 10:22:08;;;;;;;8.20;2.40;;;;;;;13.17;100.00;102449.78;6180668;28;20343;-73
2023/05/30 10:25:09;;;;;;;8.85;3.30;;;;;;;13.17;100.00;102447.16;6183622;28;20404;-72
2023/05/30 10:28:18;;;;;;;5.75;2.22;;;;;;;13.21;100.00;102442.59;6190475;28;20047;-72
2023/05/30 10:31:20;;;;;;;6.15;2.92;;;;;;;13.26;100.00;102442.47;6180160;28;20089;-72
2023/05/30 10:34:25;;;;;;;9.30;2.30;;;;;;;13.33;100.00;102446.59;6180555;28;20057;-73
2023/05/30 10:37:28;;;;;;;5.07;2.88;;;;;;;13.36;100.00;102449.16;6187165;28;20053;-73
2023/05/30 10:40:40;;;;;;;3.42;1.98;;;;;;;13.32;100.00;102439.59;6204057;28;20053;-72
2023/05/30 10:43:48;;;;;;;5.35;2.13;;;;;;;13.40;100.00;102445.47;6202565;28;20359;-72
2023/05/30 10:46:58;;;;;;;3.55;1.98;;;;;;;13.40;100.00;102440.19;6204236;28;20359;-72
2023/05/30 10:50:07;;;;;;;8.63;2.72;;;;;;;13.40;100.00;102435.75;6203555;28;20053;-72
2023/05/30 10:53:19;;;;;;;5.75;2.40;;;;;;;13.44;100.00;102433.84;6203509;28;20057;-72
2023/05/30 10:56:31;;;;;;;5.40;1.92;;;;;;;13.50;100.00;102419.56;6193867;28;20053;-73
2023/05/30 10:59:32;;;;;;;8.25;2.92;;;;;;;13.48;100.00;102424.03;6200846;28;20104;-73
2023/05/30 11:02:37;;;;;;;6.85;2.30;;;;;;;13.41;100.00;102419.00;6197843;28;20057;-73
2023/05/30 11:05:38;;;;;;;7.95;2.28;;;;;;;13.44;100.00;102418.88;6189628;28;20059;-73
2023/05/30 11:08:41;;;;;;;7.45;2.40;;;;;;;13.48;100.00;102410.81;6201797;28;20470;-74
2023/05/30 11:11:43;;;;;;;2.28;1.42;;;;;;;13.43;100.00;102416.28;6202669;28;20058;-73
2023/05/30 11:14:55;;;;;;;9.13;3.47;;;;;;;13.48;100.00;102413.47;6203604;28;20047;-73
2023/05/30 11:17:57;;;;;;;6.53;2.55;;;;;;;13.50;100.00;102416.91;6203592;28;20476;-73
2023/05/30 11:20:58;;;;;;;3.20;2.20;;;;;;;13.52;100.00;102410.63;6194801;28;20391;-74
2023/05/30 11:24:01;;;;;;;5.72;2.38;;;;;;;13.58;100.00;102412.19;6182683;28;20046;-74
2023/05/30 11:27:10;;;;;;;3.80;2.40;;;;;;;13.56;100.00;102414.03;6197322;28;20046;-72
2023/05/30 11:30:19;;;;;;;;;;;;;;;13.59;100.00;102425.34;6196790;28;20475;-73
2023/05/30 11:33:21;;;;;;;7.15;1.65;;;;;;;13.59;100.00;102416.56;6179164;28;19922;-72
2023/05/30 11:36:22;;;;;;;3.10;1.70;;;;;;;13.68;100.00;102417.06;6200688;28;20438;-73
2023/05/30 11:39:25;;;;;;;6.55;2.25;;;;;;;13.82;100.00;102418.28;6179921;28;20050;-73
2023/05/30 11:42:27;;;;;;;14.27;2.30;;;;;;;13.91;100.00;102418.78;6178846;28;20629;-72
2023/05/30 11:45:30;;;;;;;9.73;2.05;;;;;;;13.96;100.00;102403.59;6180138;28;20050;-73
2023/05/30 11:48:33;;;;;;;2.58;1.67;;;;;;;13.94;100.00;102407.19;6178603;28;20200;-73
2023/05/30 11:51:38;;;;;;;3.58;2.17;;;;;;;14.02;100.00;102402.47;6183177;28;20050;-73
2023/05/30 11:54:40;;;;;;;8.70;2.22;;;;;;;13.94;100.00;102409.84;6192655;28;20589;-74
2023/05/30 11:57:42;;;;;;;9.10;2.33;;;;;;;13.83;100.00;102410.28;6196883;28;20050;-71
2023/05/30 12:00:44;;;;;;;6.07;3.15;;;;;;;13.79;100.00;102405.19;6199909;28;20398;-72
2023/05/30 12:03:47;;;;;;;6.88;2.08;;;;;;;13.90;100.00;102403.84;6202653;28;20146;-74
2023/05/30 12:06:49;;;;;;;4.20;1.88;;;;;;;13.90;100.00;102401.22;6201748;28;20046;-73
2023/05/30 12:09:51;;;;;;;9.48;2.22;;;;;;;13.99;100.00;102407.91;6198730;28;20050;-73
2023/05/30 12:12:53;;;;;;;8.95;2.53;;;;;;;14.02;100.00;102405.13;6190140;28;20347;-74
2023/05/30 12:15:54;;;;;;;7.80;2.00;;;;;;;14.01;100.00;102405.19;6188780;28;20050;-72
2023/05/30 12:18:57;;;;;;;4.55;1.90;;;;;;;14.10;100.00;102396.88;6186920;28;20050;-73
2023/05/30 12:21:58;;;;;;;5.45;1.67;;;;;;;14.23;100.00;102400.72;6190645;28;20050;-72
2023/05/30 12:25:05;;;;;;;2.60;1.52;;;;;;;14.33;100.00;102403.84;6194524;28;20050;-72
2023/05/30 12:28:07;;;;;;;5.38;2.00;;;;;;;14.33;100.00;102402.03;6186710;28;20447;-74
2023/05/30 12:31:21;;;;;;;2.58;1.90;;;;;;;14.37;100.00;102408.94;6186446;28;20049;-72
2023/05/30 12:34:22;;;;;;;7.57;2.03;;;;;;;14.43;100.00;102403.38;6177659;28;20073;-72
2023/05/30 12:37:23;;;;;;;4.00;1.88;;;;;;;14.62;100.00;102407.88;6184190;28;20046;-72
2023/05/30 12:40:27;;;;;;;4.00;1.20;;;;;;;14.66;100.00;102410.34;6200988;28;20053;-72
2023/05/30 12:43:29;;;;;;;5.97;1.73;;;;;;;14.75;100.00;102406.44;6177687;28;20510;-72
2023/05/30 12:46:31;;;;;;;1.95;1.25;;;;;;;14.75;100.00;102405.56;6177398;28;20351;-73
2023/05/30 12:49:32;;;;;;;2.42;1.85;;;;;;;14.72;100.00;102385.41;6176756;28;20492;-73
2023/05/30 12:52:33;;;;;;;2.78;1.73;;;;;;;14.75;100.00;102390.56;6189807;28;20050;-73
2023/05/30 12:55:36;;;;;;;4.25;1.75;;;;;;;14.88;100.00;102382.91;6201311;28;20073;-69
2023/05/30 12:58:38;;;;;;;5.50;1.90;;;;;;;14.99;100.00;102388.59;6195830;28;20364;-69
2023/05/30 13:01:39;;;;;;;6.80;1.58;;;;;;;15.02;100.00;102388.44;6192628;28;20049;-69
2023/05/30 13:04:41;;;;;;;3.00;1.55;;;;;;;15.10;100.00;102386.31;6201477;28;20046;-70
2023/05/30 13:07:42;;;;;;;4.60;1.80;;;;;;;15.13;100.00;102387.97;6198601;28;20058;-69
2023/05/30 13:10:45;;;;;;;3.50;1.58;;;;;;;15.03;100.00;102384.88;6195114;28;20431;-69
2023/05/30 13:13:46;;;;;;;4.30;2.40;;;;;;;14.99;100.00;102375.38;6201217;28;20146;-69
2023/05/30 13:16:48;;;;;;;2.95;1.33;;;;;;;15.00;100.00;102382.38;6203635;28;20355;-69
2023/05/30 13:19:50;;;;;;;3.83;1.90;;;;;;;14.92;100.00;102379.22;6196180;28;20069;-69
2023/05/30 13:22:51;;;;;;;2.13;1.20;;;;;;;14.85;100.00;102381.28;6192953;28;20050;-70
2023/05/30 13:25:54;;;;;;;3.38;2.03;;;;;;;14.77;100.00;102374.63;6193059;28;20046;-69
2023/05/30 13:28:55;;;;;;;2.00;1.00;;;;;;;14.77;100.00;102369.31;6193843;28;20122;-69
2023/05/30 13:31:56;;;;;;;2.45;1.33;;;;;;;14.92;100.00;102374.78;6195228;28;20046;-69
2023/05/30 13:34:58;;;;;;;2.55;1.70;;;;;;;15.11;100.00;102377.44;6192193;28;20058;-69
2023/05/30 13:37:59;;;;;;;3.50;2.20;;;;;;;15.09;100.00;102376.66;6193285;28;20046;-69
2023/05/30 13:41:02;;;;;;;4.35;1.45;;;;;;;15.07;100.00;102377.66;6193104;28;20053;-69
2023/05/30 13:44:03;;;;;;;2.85;1.83;;;;;;;15.16;100.00;102366.63;6204689;28;20050;-69
2023/05/30 13:47:05;;;;;;;3.60;1.75;;;;;;;15.28;100.00;102363.41;6194239;28;20046;-69
2023/05/30 13:50:08;;;;;;;5.40;1.90;;;;;;;15.36;100.00;102361.25;6194059;28;20043;-69
2023/05/30 13:53:10;;;;;;;6.07;2.03;;;;;;;15.47;100.00;102368.69;6197267;28;20055;-70
2023/05/30 13:56:12;;;;;;;3.05;1.90;;;;;;;15.60;100.00;102367.16;6192470;28;20054;-69
2023/05/30 13:59:14;;;;;;;3.17;1.65;;;;;;;15.80;100.00;102368.88;6198041;28;20054;-70